sensor_id;sensor_type;location;lat;lon;timestamp;pressure;altitude;pressure_sealevel;temperature;humidity
9764;BME280;4921;43.214;27.936;2023-03-03T00:01:05;101454.25;;;8.68;92.40
9764;BME280;4921;43.214;27.936;2023-03-03T00:03:32;101455.56;;;8.75;91.41
9764;BME280;4921;43.214;27.936;2023-03-03T00:06:01;101458.69;;;8.95;90.70
9764;BME280;4921;43.214;27.936;2023-03-03T00:08:28;101455.22;;;8.81;92.27
9764;BME280;4921;43.214;27.936;2023-03-03T00:10:56;101449.97;;;8.81;91.79
9764;BME280;4921;43.214;27.936;2023-03-03T00:13:26;101447.88;;;8.72;91.71
9764;BME280;4921;43.214;27.936;2023-03-03T00:15:56;101442.34;;;8.62;92.01
9764;BME280;4921;43.214;27.936;2023-03-03T00:18:35;101438.13;;;8.60;91.76
9764;BME280;4921;43.214;27.936;2023-03-03T00:21:22;101442.91;;;8.67;91.96
9764;BME280;4921;43.214;27.936;2023-03-03T00:23:50;101443.78;;;8.52;92.96
9764;BME280;4921;43.214;27.936;2023-03-03T00:26:24;101444.53;;;8.54;93.00
9764;BME280;4921;43.214;27.936;2023-03-03T00:28:52;101434.34;;;8.50;92.83
9764;BME280;4921;43.214;27.936;2023-03-03T00:31:25;101427.66;;;8.44;93.47
9764;BME280;4921;43.214;27.936;2023-03-03T00:33:56;101430.94;;;8.48;93.27
9764;BME280;4921;43.214;27.936;2023-03-03T00:36:35;101426.94;;;8.56;92.64
9764;BME280;4921;43.214;27.936;2023-03-03T00:39:16;101426.19;;;8.54;93.16
9764;BME280;4921;43.214;27.936;2023-03-03T00:41:44;101419.00;;;8.58;91.78
9764;BME280;4921;43.214;27.936;2023-03-03T00:44:31;101421.59;;;8.73;91.16
9764;BME280;4921;43.214;27.936;2023-03-03T00:47:13;101403.22;;;8.73;91.64
9764;BME280;4921;43.214;27.936;2023-03-03T00:49:44;101403.41;;;8.70;90.65
9764;BME280;4921;43.214;27.936;2023-03-03T00:52:15;101406.59;;;8.75;89.28
9764;BME280;4921;43.214;27.936;2023-03-03T00:54:42;101402.66;;;8.68;89.91
9764;BME280;4921;43.214;27.936;2023-03-03T00:57:10;101405.31;;;8.53;91.23
9764;BME280;4921;43.214;27.936;2023-03-03T00:59:37;101404.47;;;8.52;91.88
9764;BME280;4921;43.214;27.936;2023-03-03T01:02:04;101405.06;;;8.57;90.45
9764;BME280;4921;43.214;27.936;2023-03-03T01:04:31;101402.91;;;8.64;89.25
9764;BME280;4921;43.214;27.936;2023-03-03T01:06:58;101396.19;;;8.74;87.55
9764;BME280;4921;43.214;27.936;2023-03-03T01:09:26;101390.03;;;8.75;88.78
9764;BME280;4921;43.214;27.936;2023-03-03T01:11:54;101389.38;;;8.85;87.31
9764;BME280;4921;43.214;27.936;2023-03-03T01:14:21;101380.75;;;8.83;88.02
9764;BME280;4921;43.214;27.936;2023-03-03T01:16:48;101380.66;;;8.85;89.00
9764;BME280;4921;43.214;27.936;2023-03-03T01:19:14;101378.13;;;8.83;89.51
9764;BME280;4921;43.214;27.936;2023-03-03T01:21:41;101375.50;;;8.97;88.11
9764;BME280;4921;43.214;27.936;2023-03-03T01:24:08;101366.72;;;8.98;87.14
9764;BME280;4921;43.214;27.936;2023-03-03T01:26:37;101375.16;;;9.03;85.63
9764;BME280;4921;43.214;27.936;2023-03-03T01:29:04;101372.81;;;9.13;85.70
9764;BME280;4921;43.214;27.936;2023-03-03T01:31:31;101369.50;;;8.95;86.76
9764;BME280;4921;43.214;27.936;2023-03-03T01:33:58;101377.78;;;9.03;85.73
9764;BME280;4921;43.214;27.936;2023-03-03T01:36:25;101365.41;;;8.91;86.38
9764;BME280;4921;43.214;27.936;2023-03-03T01:38:53;101359.13;;;8.94;86.28
9764;BME280;4921;43.214;27.936;2023-03-03T01:41:20;101359.41;;;9.03;86.09
9764;BME280;4921;43.214;27.936;2023-03-03T01:43:49;101362.97;;;9.02;85.55
9764;BME280;4921;43.214;27.936;2023-03-03T01:46:32;101358.94;;;9.11;85.12
9764;BME280;4921;43.214;27.936;2023-03-03T01:49:02;101357.44;;;9.07;85.56
9764;BME280;4921;43.214;27.936;2023-03-03T01:51:32;101349.41;;;9.10;85.88
9764;BME280;4921;43.214;27.936;2023-03-03T01:54:02;101345.16;;;9.07;85.38
9764;BME280;4921;43.214;27.936;2023-03-03T01:56:30;101349.09;;;9.00;86.64
9764;BME280;4921;43.214;27.936;2023-03-03T01:59:00;101350.50;;;9.06;86.47
9764;BME280;4921;43.214;27.936;2023-03-03T02:01:31;101353.50;;;9.14;84.60
9764;BME280;4921;43.214;27.936;2023-03-03T02:03:59;101360.50;;;8.99;85.32
9764;BME280;4921;43.214;27.936;2023-03-03T02:06:30;101361.56;;;8.97;85.68
9764;BME280;4921;43.214;27.936;2023-03-03T02:09:02;101362.78;;;8.91;85.65
9764;BME280;4921;43.214;27.936;2023-03-03T02:11:32;101359.94;;;8.80;86.18
9764;BME280;4921;43.214;27.936;2023-03-03T02:14:03;101352.84;;;8.82;86.18
9764;BME280;4921;43.214;27.936;2023-03-03T02:16:30;101352.38;;;8.90;85.85
9764;BME280;4921;43.214;27.936;2023-03-03T02:18:57;101347.78;;;8.93;85.77
9764;BME280;4921;43.214;27.936;2023-03-03T02:21:25;101352.00;;;8.96;86.31
9764;BME280;4921;43.214;27.936;2023-03-03T02:23:58;101344.63;;;8.88;87.00
9764;BME280;4921;43.214;27.936;2023-03-03T02:26:30;101344.97;;;8.96;86.86
9764;BME280;4921;43.214;27.936;2023-03-03T02:28:57;101342.38;;;8.96;86.36
9764;BME280;4921;43.214;27.936;2023-03-03T02:31:26;101340.00;;;9.06;86.04
9764;BME280;4921;43.214;27.936;2023-03-03T02:33:54;101349.75;;;9.04;85.63
9764;BME280;4921;43.214;27.936;2023-03-03T02:36:23;101349.47;;;8.94;86.60
9764;BME280;4921;43.214;27.936;2023-03-03T02:38:55;101349.09;;;8.86;87.05
9764;BME280;4921;43.214;27.936;2023-03-03T02:41:29;101346.78;;;8.82;87.30
9764;BME280;4921;43.214;27.936;2023-03-03T02:44:00;101346.38;;;8.88;86.20
9764;BME280;4921;43.214;27.936;2023-03-03T02:46:32;101348.06;;;8.89;86.51
9764;BME280;4921;43.214;27.936;2023-03-03T02:48:59;101349.38;;;8.96;85.69
9764;BME280;4921;43.214;27.936;2023-03-03T02:51:26;101349.38;;;8.96;85.75
9764;BME280;4921;43.214;27.936;2023-03-03T02:53:53;101348.16;;;9.01;85.85
9764;BME280;4921;43.214;27.936;2023-03-03T02:56:20;101357.53;;;8.91;86.68
9764;BME280;4921;43.214;27.936;2023-03-03T02:58:48;101347.59;;;8.82;87.06
9764;BME280;4921;43.214;27.936;2023-03-03T03:01:15;101347.88;;;8.92;86.21
9764;BME280;4921;43.214;27.936;2023-03-03T03:03:42;101337.88;;;8.98;85.08
9764;BME280;4921;43.214;27.936;2023-03-03T03:06:09;101340.09;;;9.04;84.57
9764;BME280;4921;43.214;27.936;2023-03-03T03:08:36;101343.75;;;9.02;85.26
9764;BME280;4921;43.214;27.936;2023-03-03T03:11:04;101341.34;;;8.99;85.06
9764;BME280;4921;43.214;27.936;2023-03-03T03:13:31;101333.53;;;8.97;85.83
9764;BME280;4921;43.214;27.936;2023-03-03T03:16:00;101341.34;;;8.99;85.49
9764;BME280;4921;43.214;27.936;2023-03-03T03:18:27;101341.78;;;8.91;84.81
9764;BME280;4921;43.214;27.936;2023-03-03T03:20:54;101319.69;;;8.81;84.75
9764;BME280;4921;43.214;27.936;2023-03-03T03:23:21;101325.50;;;9.00;84.27
9764;BME280;4921;43.214;27.936;2023-03-03T03:25:48;101328.97;;;9.01;84.58
9764;BME280;4921;43.214;27.936;2023-03-03T03:28:16;101324.47;;;9.03;84.46
9764;BME280;4921;43.214;27.936;2023-03-03T03:30:43;101325.38;;;9.02;84.31
9764;BME280;4921;43.214;27.936;2023-03-03T03:33:12;101328.94;;;8.87;85.37
9764;BME280;4921;43.214;27.936;2023-03-03T03:35:39;101329.97;;;8.70;86.21
9764;BME280;4921;43.214;27.936;2023-03-03T03:38:10;101310.31;;;8.63;86.38
9764;BME280;4921;43.214;27.936;2023-03-03T03:40:37;101319.69;;;8.81;85.30
9764;BME280;4921;43.214;27.936;2023-03-03T03:43:04;101323.72;;;8.87;85.88
9764;BME280;4921;43.214;27.936;2023-03-03T03:45:31;101315.47;;;8.93;84.85
9764;BME280;4921;43.214;27.936;2023-03-03T03:47:58;101322.41;;;8.94;85.03
9764;BME280;4921;43.214;27.936;2023-03-03T03:50:26;101315.28;;;8.96;84.88
9764;BME280;4921;43.214;27.936;2023-03-03T03:52:53;101325.88;;;8.94;84.06
9764;BME280;4921;43.214;27.936;2023-03-03T03:55:20;101319.03;;;8.92;84.01
9764;BME280;4921;43.214;27.936;2023-03-03T03:57:48;101320.81;;;8.91;84.34
9764;BME280;4921;43.214;27.936;2023-03-03T04:00:15;101310.31;;;8.91;84.74
9764;BME280;4921;43.214;27.936;2023-03-03T04:02:42;101312.75;;;8.80;85.38
9764;BME280;4921;43.214;27.936;2023-03-03T04:05:09;101307.50;;;8.66;88.07
9764;BME280;4921;43.214;27.936;2023-03-03T04:07:37;101310.97;;;8.67;88.90
9764;BME280;4921;43.214;27.936;2023-03-03T04:10:05;101310.25;;;8.65;88.67
9764;BME280;4921;43.214;27.936;2023-03-03T04:12:32;101303.66;;;8.72;88.30
9764;BME280;4921;43.214;27.936;2023-03-03T04:15:04;101305.09;;;8.77;87.56
9764;BME280;4921;43.214;27.936;2023-03-03T04:17:31;101291.88;;;8.65;87.79
9764;BME280;4921;43.214;27.936;2023-03-03T04:19:58;101297.94;;;8.65;88.66
9764;BME280;4921;43.214;27.936;2023-03-03T04:22:25;101297.88;;;8.67;87.62
9764;BME280;4921;43.214;27.936;2023-03-03T04:24:53;101298.06;;;8.64;88.42
9764;BME280;4921;43.214;27.936;2023-03-03T04:27:20;101295.25;;;8.67;89.12
9764;BME280;4921;43.214;27.936;2023-03-03T04:29:47;101302.44;;;8.63;90.02
9764;BME280;4921;43.214;27.936;2023-03-03T04:32:14;101299.09;;;8.75;88.54
9764;BME280;4921;43.214;27.936;2023-03-03T04:34:42;101289.91;;;8.82;88.11
9764;BME280;4921;43.214;27.936;2023-03-03T04:37:09;101292.78;;;8.78;88.07
9764;BME280;4921;43.214;27.936;2023-03-03T04:39:36;101294.66;;;8.76;88.12
9764;BME280;4921;43.214;27.936;2023-03-03T04:42:05;101295.72;;;8.87;86.69
9764;BME280;4921;43.214;27.936;2023-03-03T04:44:32;101290.63;;;8.84;86.59
9764;BME280;4921;43.214;27.936;2023-03-03T04:46:59;101297.50;;;8.73;88.79
9764;BME280;4921;43.214;27.936;2023-03-03T04:49:25;101298.41;;;8.72;88.55
9764;BME280;4921;43.214;27.936;2023-03-03T04:51:52;101296.84;;;8.83;87.46
9764;BME280;4921;43.214;27.936;2023-03-03T04:54:20;101305.84;;;8.79;87.57
9764;BME280;4921;43.214;27.936;2023-03-03T04:56:46;101292.78;;;8.78;88.18
9764;BME280;4921;43.214;27.936;2023-03-03T04:59:15;101291.97;;;8.77;88.08
9764;BME280;4921;43.214;27.936;2023-03-03T05:01:42;101296.66;;;8.72;87.39
9764;BME280;4921;43.214;27.936;2023-03-03T05:04:11;101311.72;;;8.69;88.66
9764;BME280;4921;43.214;27.936;2023-03-03T05:06:38;101307.59;;;8.79;86.83
9764;BME280;4921;43.214;27.936;2023-03-03T05:09:05;101301.06;;;8.86;86.06
9764;BME280;4921;43.214;27.936;2023-03-03T05:11:32;101305.44;;;8.85;86.73
9764;BME280;4921;43.214;27.936;2023-03-03T05:13:59;101302.66;;;8.88;86.69
9764;BME280;4921;43.214;27.936;2023-03-03T05:16:29;101299.72;;;8.93;86.70
9764;BME280;4921;43.214;27.936;2023-03-03T05:18:56;101301.06;;;8.86;86.96
9764;BME280;4921;43.214;27.936;2023-03-03T05:21:22;101304.31;;;8.89;87.26
9764;BME280;4921;43.214;27.936;2023-03-03T05:23:49;101299.81;;;8.91;86.75
9764;BME280;4921;43.214;27.936;2023-03-03T05:26:16;101299.72;;;8.93;85.41
9764;BME280;4921;43.214;27.936;2023-03-03T05:28:43;101312.28;;;8.88;87.07
9764;BME280;4921;43.214;27.936;2023-03-03T05:31:11;101317.91;;;8.82;85.71
9764;BME280;4921;43.214;27.936;2023-03-03T05:33:39;101308.16;;;8.98;83.80
9764;BME280;4921;43.214;27.936;2023-03-03T05:36:07;101309.09;;;8.97;84.03
9764;BME280;4921;43.214;27.936;2023-03-03T05:38:34;101305.28;;;8.88;86.27
9764;BME280;4921;43.214;27.936;2023-03-03T05:41:01;101304.59;;;8.85;85.68
9764;BME280;4921;43.214;27.936;2023-03-03T05:43:28;101312.56;;;8.97;85.22
9764;BME280;4921;43.214;27.936;2023-03-03T05:45:55;101314.03;;;9.01;85.30
9764;BME280;4921;43.214;27.936;2023-03-03T05:48:22;101313.41;;;9.12;85.50
9764;BME280;4921;43.214;27.936;2023-03-03T05:50:50;101317.91;;;9.10;85.67
9764;BME280;4921;43.214;27.936;2023-03-03T05:53:18;101331.47;;;9.02;87.02
9764;BME280;4921;43.214;27.936;2023-03-03T05:55:45;101327.28;;;9.14;86.20
9764;BME280;4921;43.214;27.936;2023-03-03T05:58:11;101321.56;;;9.07;86.06
9764;BME280;4921;43.214;27.936;2023-03-03T06:00:38;101321.75;;;9.18;84.81
9764;BME280;4921;43.214;27.936;2023-03-03T06:03:05;101320.16;;;9.16;84.44
9764;BME280;4921;43.214;27.936;2023-03-03T06:05:32;101321.53;;;9.21;83.06
9764;BME280;4921;43.214;27.936;2023-03-03T06:08:01;101319.13;;;9.18;82.13
9764;BME280;4921;43.214;27.936;2023-03-03T06:10:28;101320.88;;;9.18;82.42
9764;BME280;4921;43.214;27.936;2023-03-03T06:12:55;101301.13;;;8.98;83.52
9764;BME280;4921;43.214;27.936;2023-03-03T06:15:23;101312.66;;;9.10;83.50
9764;BME280;4921;43.214;27.936;2023-03-03T06:17:50;101316.56;;;9.17;82.89
9764;BME280;4921;43.214;27.936;2023-03-03T06:20:17;101309.72;;;9.14;82.66
9764;BME280;4921;43.214;27.936;2023-03-03T06:22:44;101316.66;;;9.15;82.79
9764;BME280;4921;43.214;27.936;2023-03-03T06:25:12;101319.66;;;9.23;81.84
9764;BME280;4921;43.214;27.936;2023-03-03T06:27:39;101319.56;;;9.25;80.71
9764;BME280;4921;43.214;27.936;2023-03-03T06:30:07;101316.09;;;9.25;79.75
9764;BME280;4921;43.214;27.936;2023-03-03T06:32:34;101326.59;;;9.25;80.13
9764;BME280;4921;43.214;27.936;2023-03-03T06:35:01;101318.44;;;9.29;79.91
9764;BME280;4921;43.214;27.936;2023-03-03T06:37:28;101320.97;;;9.31;80.41
9764;BME280;4921;43.214;27.936;2023-03-03T06:39:55;101320.66;;;9.35;79.52
9764;BME280;4921;43.214;27.936;2023-03-03T06:42:23;101316.91;;;9.39;78.47
9764;BME280;4921;43.214;27.936;2023-03-03T06:44:50;101319.19;;;9.31;78.43
9764;BME280;4921;43.214;27.936;2023-03-03T06:47:17;101322.16;;;9.39;78.17
9764;BME280;4921;43.214;27.936;2023-03-03T06:49:44;101327.97;;;9.44;77.96
9764;BME280;4921;43.214;27.936;2023-03-03T06:52:13;101323.09;;;9.38;78.42
9764;BME280;4921;43.214;27.936;2023-03-03T06:54:40;101330.88;;;9.40;78.97
9764;BME280;4921;43.214;27.936;2023-03-03T06:57:22;101327.56;;;9.50;78.54
9764;BME280;4921;43.214;27.936;2023-03-03T06:59:54;101326.44;;;9.54;77.97
9764;BME280;4921;43.214;27.936;2023-03-03T07:02:22;101321.19;;;9.54;77.52
9764;BME280;4921;43.214;27.936;2023-03-03T07:04:49;101324.19;;;9.48;77.64
9764;BME280;4921;43.214;27.936;2023-03-03T07:07:18;101327.56;;;9.50;78.28
9764;BME280;4921;43.214;27.936;2023-03-03T07:09:47;101325.69;;;9.52;76.77
9764;BME280;4921;43.214;27.936;2023-03-03T07:12:17;101323.34;;;9.48;77.14
9764;BME280;4921;43.214;27.936;2023-03-03T07:14:45;101315.94;;;9.54;76.75
9764;BME280;4921;43.214;27.936;2023-03-03T07:17:16;101310.69;;;9.54;76.55
9764;BME280;4921;43.214;27.936;2023-03-03T07:19:43;101311.41;;;9.56;76.52
9764;BME280;4921;43.214;27.936;2023-03-03T07:22:14;101318.84;;;9.50;76.75
9764;BME280;4921;43.214;27.936;2023-03-03T07:24:43;101310.53;;;9.43;75.90
9764;BME280;4921;43.214;27.936;2023-03-03T07:27:13;101309.03;;;9.39;76.52
9764;BME280;4921;43.214;27.936;2023-03-03T07:29:45;101309.31;;;9.49;75.16
9764;BME280;4921;43.214;27.936;2023-03-03T07:32:25;101309.75;;;9.55;75.46
9764;BME280;4921;43.214;27.936;2023-03-03T07:34:54;101313.31;;;9.54;75.73
9764;BME280;4921;43.214;27.936;2023-03-03T07:37:30;101304.06;;;9.49;75.24
9764;BME280;4921;43.214;27.936;2023-03-03T07:40:00;101285.06;;;9.31;74.78
9764;BME280;4921;43.214;27.936;2023-03-03T07:42:38;101310.50;;;9.57;72.66
9764;BME280;4921;43.214;27.936;2023-03-03T07:45:20;101302.47;;;9.46;74.12
9764;BME280;4921;43.214;27.936;2023-03-03T07:47:50;101297.03;;;9.62;73.20
9764;BME280;4921;43.214;27.936;2023-03-03T07:50:18;101287.69;;;9.58;73.33
9764;BME280;4921;43.214;27.936;2023-03-03T07:52:53;101295.63;;;9.70;73.58
9764;BME280;4921;43.214;27.936;2023-03-03T07:55:33;101295.41;;;9.73;73.15
9764;BME280;4921;43.214;27.936;2023-03-03T07:58:19;101291.03;;;9.86;72.60
9764;BME280;4921;43.214;27.936;2023-03-03T08:03:54;101284.34;;;9.95;73.10
9764;BME280;4921;43.214;27.936;2023-03-03T08:06:38;101287.81;;;9.95;72.25
9764;BME280;4921;43.214;27.936;2023-03-03T08:09:34;101277.31;;;9.95;72.29
9764;BME280;4921;43.214;27.936;2023-03-03T08:15:18;101263.34;;;9.68;72.46
9764;BME280;4921;43.214;27.936;2023-03-03T08:17:46;101277.59;;;9.78;73.52
9764;BME280;4921;43.214;27.936;2023-03-03T08:23:20;101278.75;;;9.87;72.17
9764;BME280;4921;43.214;27.936;2023-03-03T08:25:48;101259.53;;;9.86;72.10
9764;BME280;4921;43.214;27.936;2023-03-03T08:28:16;101275.88;;;9.77;72.87
9764;BME280;4921;43.214;27.936;2023-03-03T08:30:43;101282.75;;;9.92;72.70
9764;BME280;4921;43.214;27.936;2023-03-03T08:33:11;101275.06;;;10.16;83.56
9764;BME280;4921;43.214;27.936;2023-03-03T08:35:38;101273.47;;;10.14;71.51
9764;BME280;4921;43.214;27.936;2023-03-03T08:38:06;101267.94;;;10.31;70.29
9764;BME280;4921;43.214;27.936;2023-03-03T08:40:35;101273.72;;;10.36;70.00
9764;BME280;4921;43.214;27.936;2023-03-03T08:43:02;101275.06;;;10.16;73.11
9764;BME280;4921;43.214;27.936;2023-03-03T08:45:30;101281.09;;;10.43;72.49
9764;BME280;4921;43.214;27.936;2023-03-03T08:47:57;101279.81;;;10.61;71.38
9764;BME280;4921;43.214;27.936;2023-03-03T08:50:26;101272.97;;;10.71;70.30
9764;BME280;4921;43.214;27.936;2023-03-03T08:52:54;101294.19;;;10.94;69.24
9764;BME280;4921;43.214;27.936;2023-03-03T08:55:21;101282.69;;;11.07;69.05
9764;BME280;4921;43.214;27.936;2023-03-03T08:57:49;101289.00;;;11.05;69.26
9764;BME280;4921;43.214;27.936;2023-03-03T09:00:17;101286.50;;;11.03;69.74
9764;BME280;4921;43.214;27.936;2023-03-03T09:02:44;101286.78;;;11.11;69.05
9764;BME280;4921;43.214;27.936;2023-03-03T09:05:12;101291.88;;;10.89;70.29
9764;BME280;4921;43.214;27.936;2023-03-03T09:07:39;101285.69;;;10.78;71.33
9764;BME280;4921;43.214;27.936;2023-03-03T09:10:08;101285.19;;;10.47;72.11
9764;BME280;4921;43.214;27.936;2023-03-03T09:12:38;101277.72;;;10.54;72.38
9764;BME280;4921;43.214;27.936;2023-03-03T09:15:19;101275.72;;;10.32;72.33
9764;BME280;4921;43.214;27.936;2023-03-03T09:17:47;101266.25;;;10.30;74.57
9764;BME280;4921;43.214;27.936;2023-03-03T09:20:30;101270.56;;;10.43;71.83
9764;BME280;4921;43.214;27.936;2023-03-03T09:22:59;101270.97;;;10.37;72.07
9764;BME280;4921;43.214;27.936;2023-03-03T09:25:42;101272.13;;;10.33;74.44
9764;BME280;4921;43.214;27.936;2023-03-03T09:28:20;101267.59;;;10.35;74.92
9764;BME280;4921;43.214;27.936;2023-03-03T09:30:51;101255.97;;;10.39;75.02
9764;BME280;4921;43.214;27.936;2023-03-03T09:33:27;101256.16;;;10.24;76.24
9764;BME280;4921;43.214;27.936;2023-03-03T09:36:02;101258.00;;;10.09;74.95
9764;BME280;4921;43.214;27.936;2023-03-03T09:38:30;101259.81;;;9.82;75.70
9764;BME280;4921;43.214;27.936;2023-03-03T09:41:21;101257.41;;;9.79;75.12
9764;BME280;4921;43.214;27.936;2023-03-03T09:44:08;101257.59;;;9.76;75.33
9764;BME280;4921;43.214;27.936;2023-03-03T09:46:41;101253.41;;;9.73;76.59
9764;BME280;4921;43.214;27.936;2023-03-03T09:49:18;101255.28;;;9.45;75.80
9764;BME280;4921;43.214;27.936;2023-03-03T09:54:55;101246.94;;;9.52;78.38
9764;BME280;4921;43.214;27.936;2023-03-03T09:57:35;101239.97;;;9.51;76.97
9764;BME280;4921;43.214;27.936;2023-03-03T10:00:21;101228.69;;;9.63;76.75
9764;BME280;4921;43.214;27.936;2023-03-03T10:05:48;101223.28;;;9.91;77.31
9764;BME280;4921;43.214;27.936;2023-03-03T10:08:41;101214.25;;;9.83;75.55
9764;BME280;4921;43.214;27.936;2023-03-03T10:11:17;101215.28;;;9.80;75.48
9764;BME280;4921;43.214;27.936;2023-03-03T10:14:01;101207.53;;;9.91;75.66
9764;BME280;4921;43.214;27.936;2023-03-03T10:16:43;101214.97;;;9.85;75.11
9764;BME280;4921;43.214;27.936;2023-03-03T10:19:30;101198.56;;;9.81;77.91
9764;BME280;4921;43.214;27.936;2023-03-03T10:22:13;101198.38;;;9.97;75.71
9764;BME280;4921;43.214;27.936;2023-03-03T10:24:50;101200.06;;;9.85;74.98
9764;BME280;4921;43.214;27.936;2023-03-03T10:27:37;101192.19;;;9.98;74.93
9764;BME280;4921;43.214;27.936;2023-03-03T10:30:10;101196.78;;;9.69;76.13
9764;BME280;4921;43.214;27.936;2023-03-03T10:32:42;101191.00;;;9.77;77.95
9764;BME280;4921;43.214;27.936;2023-03-03T10:35:32;101184.63;;;9.93;78.21
9764;BME280;4921;43.214;27.936;2023-03-03T10:38:11;101193.84;;;9.86;81.40
9764;BME280;4921;43.214;27.936;2023-03-03T10:40:46;101181.25;;;10.04;80.19
9764;BME280;4921;43.214;27.936;2023-03-03T10:43:40;101188.91;;;10.07;81.34
9764;BME280;4921;43.214;27.936;2023-03-03T10:46:23;101189.06;;;10.18;80.37
9764;BME280;4921;43.214;27.936;2023-03-03T10:49:30;101186.13;;;10.23;78.19
9764;BME280;4921;43.214;27.936;2023-03-03T10:52:15;101184.66;;;10.19;80.07
9764;BME280;4921;43.214;27.936;2023-03-03T10:55:11;101175.28;;;10.02;83.65
9764;BME280;4921;43.214;27.936;2023-03-03T10:57:46;101176.75;;;10.06;82.56
9764;BME280;4921;43.214;27.936;2023-03-03T11:00:22;101172.03;;;10.24;81.30
9764;BME280;4921;43.214;27.936;2023-03-03T11:03:26;101176.22;;;10.51;80.08
9764;BME280;4921;43.214;27.936;2023-03-03T11:05:57;101158.63;;;10.64;79.96
9764;BME280;4921;43.214;27.936;2023-03-03T11:08:30;101157.88;;;10.62;74.75
9764;BME280;4921;43.214;27.936;2023-03-03T11:11:06;101144.50;;;10.65;75.28
9764;BME280;4921;43.214;27.936;2023-03-03T11:13:41;101150.16;;;10.85;73.29
9764;BME280;4921;43.214;27.936;2023-03-03T11:16:47;101133.66;;;10.70;70.83
9764;BME280;4921;43.214;27.936;2023-03-03T11:19:30;101133.03;;;10.66;75.68
9764;BME280;4921;43.214;27.936;2023-03-03T11:22:09;101129.09;;;10.48;76.13
9764;BME280;4921;43.214;27.936;2023-03-03T11:24:52;101127.94;;;10.40;77.40
9764;BME280;4921;43.214;27.936;2023-03-03T11:27:37;101113.34;;;10.36;79.81
9764;BME280;4921;43.214;27.936;2023-03-03T11:30:22;101112.09;;;10.29;75.88
9764;BME280;4921;43.214;27.936;2023-03-03T11:32:59;101109.34;;;10.05;80.08
9764;BME280;4921;43.214;27.936;2023-03-03T11:35:35;101116.31;;;10.06;78.06
9764;BME280;4921;43.214;27.936;2023-03-03T11:38:16;101109.69;;;9.88;80.42
9764;BME280;4921;43.214;27.936;2023-03-03T11:40:50;101104.84;;;9.94;78.25
9764;BME280;4921;43.214;27.936;2023-03-03T11:43:23;101108.88;;;10.13;75.93
9764;BME280;4921;43.214;27.936;2023-03-03T11:45:54;101094.03;;;10.24;75.60
9764;BME280;4921;43.214;27.936;2023-03-03T11:48:29;101105.63;;;10.58;75.07
9764;BME280;4921;43.214;27.936;2023-03-03T11:51:02;101097.44;;;10.50;77.76
9764;BME280;4921;43.214;27.936;2023-03-03T11:53:48;101087.31;;;10.56;77.14
9764;BME280;4921;43.214;27.936;2023-03-03T11:56:23;101091.38;;;10.73;77.62
9764;BME280;4921;43.214;27.936;2023-03-03T11:59:31;101096.38;;;10.76;78.90
9764;BME280;4921;43.214;27.936;2023-03-03T12:02:13;101073.72;;;10.86;78.04
9764;BME280;4921;43.214;27.936;2023-03-03T12:04:44;101092.94;;;10.76;76.73
9764;BME280;4921;43.214;27.936;2023-03-03T12:07:23;101098.75;;;10.92;78.05
9764;BME280;4921;43.214;27.936;2023-03-03T12:10:11;101103.22;;;10.79;76.92
9764;BME280;4921;43.214;27.936;2023-03-03T12:12:42;101102.53;;;10.64;77.70
9764;BME280;4921;43.214;27.936;2023-03-03T12:15:18;101093.56;;;10.43;80.40
9764;BME280;4921;43.214;27.936;2023-03-03T12:18:01;101086.75;;;10.64;80.80
9764;BME280;4921;43.214;27.936;2023-03-03T12:20:39;101071.94;;;10.87;77.81
9764;BME280;4921;43.214;27.936;2023-03-03T12:23:20;101088.06;;;11.06;76.21
9764;BME280;4921;43.214;27.936;2023-03-03T12:25:57;101083.69;;;10.94;78.23
9764;BME280;4921;43.214;27.936;2023-03-03T12:28:31;101089.84;;;10.82;76.95
9764;BME280;4921;43.214;27.936;2023-03-03T12:33:55;101093.50;;;10.07;80.86
9764;BME280;4921;43.214;27.936;2023-03-03T12:36:47;101086.34;;;10.21;82.11
9764;BME280;4921;43.214;27.936;2023-03-03T12:39:25;101081.53;;;10.15;83.51
9764;BME280;4921;43.214;27.936;2023-03-03T12:42:00;101086.56;;;10.18;83.12
9764;BME280;4921;43.214;27.936;2023-03-03T12:44:34;101086.56;;;10.31;82.59
9764;BME280;4921;43.214;27.936;2023-03-03T12:47:09;101090.69;;;9.84;84.95
9764;BME280;4921;43.214;27.936;2023-03-03T12:49:54;101094.78;;;9.88;84.74
9764;BME280;4921;43.214;27.936;2023-03-03T12:52:32;101094.31;;;10.07;82.13
9764;BME280;4921;43.214;27.936;2023-03-03T12:55:10;101084.59;;;9.71;84.67
9764;BME280;4921;43.214;27.936;2023-03-03T12:57:48;101089.28;;;9.66;85.77
9764;BME280;4921;43.214;27.936;2023-03-03T13:00:23;101075.56;;;9.63;86.12
9764;BME280;4921;43.214;27.936;2023-03-03T13:03:01;101091.63;;;9.58;87.65
9764;BME280;4921;43.214;27.936;2023-03-03T13:05:41;101081.03;;;9.72;87.83
9764;BME280;4921;43.214;27.936;2023-03-03T13:08:24;101090.25;;;9.78;88.42
9764;BME280;4921;43.214;27.936;2023-03-03T13:11:00;101085.44;;;9.72;89.38
9764;BME280;4921;43.214;27.936;2023-03-03T13:13:35;101091.41;;;9.49;89.16
9764;BME280;4921;43.214;27.936;2023-03-03T13:16:11;101065.56;;;9.43;88.29
9764;BME280;4921;43.214;27.936;2023-03-03T13:18:49;101080.69;;;9.39;90.58
9764;BME280;4921;43.214;27.936;2023-03-03T13:21:21;101081.19;;;9.32;93.18
9764;BME280;4921;43.214;27.936;2023-03-03T13:23:53;101080.13;;;9.34;92.85
9764;BME280;4921;43.214;27.936;2023-03-03T13:26:27;101077.59;;;9.07;97.89
9764;BME280;4921;43.214;27.936;2023-03-03T13:29:04;101075.97;;;8.92;100.00
9764;BME280;4921;43.214;27.936;2023-03-03T13:31:39;101076.88;;;9.18;99.63
9764;BME280;4921;43.214;27.936;2023-03-03T13:34:09;101073.22;;;9.33;97.24
9764;BME280;4921;43.214;27.936;2023-03-03T13:36:44;101073.13;;;9.47;95.40
9764;BME280;4921;43.214;27.936;2023-03-03T13:41:48;101071.63;;;9.31;95.67
9764;BME280;4921;43.214;27.936;2023-03-03T13:44:23;101069.44;;;9.37;96.63
9764;BME280;4921;43.214;27.936;2023-03-03T13:47:00;101072.38;;;9.45;95.29
9764;BME280;4921;43.214;27.936;2023-03-03T13:49:39;101073.84;;;9.37;94.65
9764;BME280;4921;43.214;27.936;2023-03-03T13:52:13;101064.50;;;9.33;97.45
9764;BME280;4921;43.214;27.936;2023-03-03T13:54:56;101068.09;;;9.44;97.71